sensor_id;sensor_type;location;lat;lon;timestamp;P1;durP1;ratioP1;P2;durP2;ratioP2
26536;SDS011;14204;51.262;5.488;2023-05-17T00:01:50;15.25;;;4.45;;
26536;SDS011;14204;51.262;5.488;2023-05-17T00:04:16;10.70;;;3.38;;
26536;SDS011;14204;51.262;5.488;2023-05-17T00:06:42;15.75;;;3.78;;
26536;SDS011;14204;51.262;5.488;2023-05-17T00:09:08;7.78;;;3.30;;
26536;SDS011;14204;51.262;5.488;2023-05-17T00:11:34;9.32;;;3.33;;
26536;SDS011;14204;51.262;5.488;2023-05-17T00:14:00;11.82;;;3.67;;
26536;SDS011;14204;51.262;5.488;2023-05-17T00:16:28;9.30;;;3.20;;
26536;SDS011;14204;51.262;5.488;2023-05-17T00:18:58;11.20;;;3.78;;
26536;SDS011;14204;51.262;5.488;2023-05-17T00:21:26;13.82;;;4.00;;
26536;SDS011;14204;51.262;5.488;2023-05-17T00:23:52;10.43;;;3.78;;
26536;SDS011;14204;51.262;5.488;2023-05-17T00:26:18;10.43;;;3.63;;
26536;SDS011;14204;51.262;5.488;2023-05-17T00:28:44;9.63;;;3.25;;
26536;SDS011;14204;51.262;5.488;2023-05-17T00:31:10;13.15;;;4.20;;
26536;SDS011;14204;51.262;5.488;2023-05-17T00:33:35;10.85;;;4.30;;
26536;SDS011;14204;51.262;5.488;2023-05-17T00:36:01;7.50;;;3.85;;
26536;SDS011;14204;51.262;5.488;2023-05-17T00:38:27;8.57;;;3.72;;
26536;SDS011;14204;51.262;5.488;2023-05-17T00:40:53;12.48;;;4.20;;
26536;SDS011;14204;51.262;5.488;2023-05-17T00:43:19;12.13;;;4.10;;
26536;SDS011;14204;51.262;5.488;2023-05-17T00:45:44;13.55;;;4.45;;
26536;SDS011;14204;51.262;5.488;2023-05-17T00:48:12;12.23;;;4.35;;
26536;SDS011;14204;51.262;5.488;2023-05-17T00:50:39;14.43;;;4.82;;
26536;SDS011;14204;51.262;5.488;2023-05-17T00:53:05;13.27;;;4.75;;
26536;SDS011;14204;51.262;5.488;2023-05-17T00:55:31;11.73;;;4.80;;
26536;SDS011;14204;51.262;5.488;2023-05-17T00:57:57;11.57;;;4.80;;
26536;SDS011;14204;51.262;5.488;2023-05-17T01:00:23;9.80;;;4.03;;
26536;SDS011;14204;51.262;5.488;2023-05-17T01:02:50;12.38;;;4.78;;
26536;SDS011;14204;51.262;5.488;2023-05-17T01:05:16;13.20;;;4.55;;
26536;SDS011;14204;51.262;5.488;2023-05-17T01:07:41;12.77;;;5.35;;
26536;SDS011;14204;51.262;5.488;2023-05-17T01:10:07;16.52;;;5.03;;
26536;SDS011;14204;51.262;5.488;2023-05-17T01:15:21;12.55;;;4.70;;
26536;SDS011;14204;51.262;5.488;2023-05-17T01:20:39;10.98;;;4.20;;
26536;SDS011;14204;51.262;5.488;2023-05-17T01:26:07;14.73;;;4.70;;
26536;SDS011;14204;51.262;5.488;2023-05-17T01:28:39;17.75;;;5.60;;
26536;SDS011;14204;51.262;5.488;2023-05-17T01:31:07;20.58;;;5.30;;
26536;SDS011;14204;51.262;5.488;2023-05-17T01:33:34;15.43;;;5.32;;
26536;SDS011;14204;51.262;5.488;2023-05-17T01:36:01;14.95;;;5.38;;
26536;SDS011;14204;51.262;5.488;2023-05-17T01:38:27;10.25;;;5.47;;
26536;SDS011;14204;51.262;5.488;2023-05-17T01:43:42;12.77;;;4.88;;
26536;SDS011;14204;51.262;5.488;2023-05-17T01:46:27;10.73;;;4.63;;
26536;SDS011;14204;51.262;5.488;2023-05-17T01:49:39;13.90;;;5.05;;
26536;SDS011;14204;51.262;5.488;2023-05-17T01:54:19;14.15;;;5.20;;
26536;SDS011;14204;51.262;5.488;2023-05-17T01:56:48;19.73;;;5.82;;
26536;SDS011;14204;51.262;5.488;2023-05-17T02:01:49;16.90;;;5.22;;
26536;SDS011;14204;51.262;5.488;2023-05-17T02:04:21;14.60;;;5.82;;
26536;SDS011;14204;51.262;5.488;2023-05-17T02:06:47;12.27;;;4.78;;
26536;SDS011;14204;51.262;5.488;2023-05-17T02:09:12;14.38;;;4.95;;
26536;SDS011;14204;51.262;5.488;2023-05-17T02:11:38;12.00;;;4.97;;
26536;SDS011;14204;51.262;5.488;2023-05-17T02:14:04;14.32;;;5.43;;
26536;SDS011;14204;51.262;5.488;2023-05-17T02:16:29;14.10;;;5.82;;
26536;SDS011;14204;51.262;5.488;2023-05-17T02:18:55;16.58;;;5.40;;
26536;SDS011;14204;51.262;5.488;2023-05-17T02:21:21;18.33;;;5.80;;
26536;SDS011;14204;51.262;5.488;2023-05-17T02:23:46;17.10;;;5.63;;
26536;SDS011;14204;51.262;5.488;2023-05-17T02:26:12;10.85;;;4.93;;
26536;SDS011;14204;51.262;5.488;2023-05-17T02:28:38;11.55;;;4.97;;
26536;SDS011;14204;51.262;5.488;2023-05-17T02:31:04;12.60;;;5.68;;
26536;SDS011;14204;51.262;5.488;2023-05-17T02:33:33;11.65;;;5.13;;
26536;SDS011;14204;51.262;5.488;2023-05-17T02:35:59;17.45;;;5.60;;
26536;SDS011;14204;51.262;5.488;2023-05-17T02:38:25;14.40;;;6.40;;
26536;SDS011;14204;51.262;5.488;2023-05-17T02:40:51;13.93;;;5.72;;
26536;SDS011;14204;51.262;5.488;2023-05-17T02:43:16;17.25;;;5.78;;
26536;SDS011;14204;51.262;5.488;2023-05-17T02:45:42;18.77;;;5.90;;
26536;SDS011;14204;51.262;5.488;2023-05-17T02:48:09;18.08;;;6.05;;
26536;SDS011;14204;51.262;5.488;2023-05-17T02:50:35;13.18;;;5.70;;
26536;SDS011;14204;51.262;5.488;2023-05-17T02:53:01;15.40;;;6.60;;
26536;SDS011;14204;51.262;5.488;2023-05-17T02:55:27;14.25;;;6.03;;
26536;SDS011;14204;51.262;5.488;2023-05-17T02:57:53;18.00;;;5.80;;
26536;SDS011;14204;51.262;5.488;2023-05-17T03:00:18;22.40;;;5.40;;
26536;SDS011;14204;51.262;5.488;2023-05-17T03:02:44;13.10;;;6.22;;
26536;SDS011;14204;51.262;5.488;2023-05-17T03:05:10;18.30;;;6.63;;
26536;SDS011;14204;51.262;5.488;2023-05-17T03:07:36;12.40;;;6.30;;
26536;SDS011;14204;51.262;5.488;2023-05-17T03:10:02;16.88;;;6.72;;
26536;SDS011;14204;51.262;5.488;2023-05-17T03:12:27;17.60;;;6.75;;
26536;SDS011;14204;51.262;5.488;2023-05-17T03:14:53;12.75;;;6.70;;
26536;SDS011;14204;51.262;5.488;2023-05-17T03:17:19;16.15;;;7.20;;
26536;SDS011;14204;51.262;5.488;2023-05-17T03:19:44;19.83;;;6.90;;
26536;SDS011;14204;51.262;5.488;2023-05-17T03:22:10;19.95;;;7.10;;
26536;SDS011;14204;51.262;5.488;2023-05-17T03:24:36;15.30;;;7.15;;
26536;SDS011;14204;51.262;5.488;2023-05-17T03:27:01;13.57;;;7.10;;
26536;SDS011;14204;51.262;5.488;2023-05-17T03:29:27;13.48;;;6.18;;
26536;SDS011;14204;51.262;5.488;2023-05-17T03:31:53;16.00;;;6.43;;
26536;SDS011;14204;51.262;5.488;2023-05-17T03:34:19;17.35;;;7.22;;
26536;SDS011;14204;51.262;5.488;2023-05-17T03:36:44;16.50;;;6.63;;
26536;SDS011;14204;51.262;5.488;2023-05-17T03:39:10;20.30;;;7.03;;
26536;SDS011;14204;51.262;5.488;2023-05-17T03:41:36;16.25;;;7.30;;
26536;SDS011;14204;51.262;5.488;2023-05-17T03:44:01;14.20;;;6.93;;
26536;SDS011;14204;51.262;5.488;2023-05-17T03:46:27;13.65;;;7.43;;
26536;SDS011;14204;51.262;5.488;2023-05-17T03:48:53;17.45;;;7.22;;
26536;SDS011;14204;51.262;5.488;2023-05-17T03:51:18;14.93;;;6.80;;
26536;SDS011;14204;51.262;5.488;2023-05-17T03:53:44;14.70;;;7.03;;
26536;SDS011;14204;51.262;5.488;2023-05-17T03:56:10;18.92;;;7.88;;
26536;SDS011;14204;51.262;5.488;2023-05-17T03:58:36;24.67;;;9.75;;
26536;SDS011;14204;51.262;5.488;2023-05-17T04:01:02;20.33;;;10.18;;
26536;SDS011;14204;51.262;5.488;2023-05-17T04:03:28;23.77;;;10.18;;
26536;SDS011;14204;51.262;5.488;2023-05-17T04:06:03;24.55;;;10.13;;
26536;SDS011;14204;51.262;5.488;2023-05-17T04:08:33;19.05;;;9.35;;
26536;SDS011;14204;51.262;5.488;2023-05-17T04:10:59;19.05;;;10.35;;
26536;SDS011;14204;51.262;5.488;2023-05-17T04:13:34;22.20;;;10.70;;
26536;SDS011;14204;51.262;5.488;2023-05-17T04:16:01;26.92;;;10.45;;
26536;SDS011;14204;51.262;5.488;2023-05-17T04:18:27;18.38;;;10.45;;
26536;SDS011;14204;51.262;5.488;2023-05-17T04:20:53;27.90;;;12.43;;
26536;SDS011;14204;51.262;5.488;2023-05-17T04:23:20;26.00;;;10.73;;
26536;SDS011;14204;51.262;5.488;2023-05-17T04:25:46;19.95;;;11.45;;
26536;SDS011;14204;51.262;5.488;2023-05-17T04:28:11;26.67;;;10.77;;
26536;SDS011;14204;51.262;5.488;2023-05-17T04:30:44;25.20;;;10.13;;
26536;SDS011;14204;51.262;5.488;2023-05-17T04:33:10;22.00;;;11.07;;
26536;SDS011;14204;51.262;5.488;2023-05-17T04:35:37;25.52;;;10.85;;
26536;SDS011;14204;51.262;5.488;2023-05-17T04:38:06;27.95;;;10.70;;
26536;SDS011;14204;51.262;5.488;2023-05-17T04:40:31;22.40;;;11.07;;
26536;SDS011;14204;51.262;5.488;2023-05-17T04:42:58;24.48;;;11.32;;
26536;SDS011;14204;51.262;5.488;2023-05-17T04:45:23;24.65;;;11.82;;
26536;SDS011;14204;51.262;5.488;2023-05-17T04:47:49;23.30;;;10.32;;
26536;SDS011;14204;51.262;5.488;2023-05-17T04:50:16;24.55;;;9.07;;
26536;SDS011;14204;51.262;5.488;2023-05-17T04:52:43;25.63;;;10.10;;
26536;SDS011;14204;51.262;5.488;2023-05-17T04:55:10;25.20;;;10.95;;
26536;SDS011;14204;51.262;5.488;2023-05-17T04:57:35;24.88;;;10.70;;
26536;SDS011;14204;51.262;5.488;2023-05-17T05:00:02;27.25;;;10.20;;
26536;SDS011;14204;51.262;5.488;2023-05-17T05:02:34;27.20;;;10.80;;
26536;SDS011;14204;51.262;5.488;2023-05-17T05:05:00;28.95;;;11.48;;
26536;SDS011;14204;51.262;5.488;2023-05-17T05:07:25;27.98;;;11.80;;
26536;SDS011;14204;51.262;5.488;2023-05-17T05:09:51;27.27;;;12.35;;
26536;SDS011;14204;51.262;5.488;2023-05-17T05:12:17;32.08;;;11.38;;
26536;SDS011;14204;51.262;5.488;2023-05-17T05:14:43;29.48;;;11.40;;
26536;SDS011;14204;51.262;5.488;2023-05-17T05:17:08;29.15;;;12.85;;
26536;SDS011;14204;51.262;5.488;2023-05-17T05:19:34;34.15;;;10.75;;
26536;SDS011;14204;51.262;5.488;2023-05-17T05:22:00;26.83;;;10.32;;
26536;SDS011;14204;51.262;5.488;2023-05-17T05:24:26;26.38;;;11.45;;
26536;SDS011;14204;51.262;5.488;2023-05-17T05:26:51;22.85;;;10.52;;
26536;SDS011;14204;51.262;5.488;2023-05-17T05:29:17;22.20;;;9.57;;
26536;SDS011;14204;51.262;5.488;2023-05-17T05:31:43;32.60;;;11.23;;
26536;SDS011;14204;51.262;5.488;2023-05-17T05:34:09;25.75;;;10.40;;
26536;SDS011;14204;51.262;5.488;2023-05-17T05:36:34;23.58;;;11.13;;
26536;SDS011;14204;51.262;5.488;2023-05-17T05:39:00;29.17;;;11.23;;
26536;SDS011;14204;51.262;5.488;2023-05-17T05:41:26;24.23;;;11.20;;
26536;SDS011;14204;51.262;5.488;2023-05-17T05:43:52;28.38;;;10.95;;
26536;SDS011;14204;51.262;5.488;2023-05-17T05:46:18;29.52;;;10.50;;
26536;SDS011;14204;51.262;5.488;2023-05-17T05:48:43;32.65;;;11.27;;
26536;SDS011;14204;51.262;5.488;2023-05-17T05:51:09;26.23;;;10.68;;
26536;SDS011;14204;51.262;5.488;2023-05-17T05:53:35;23.90;;;10.30;;
26536;SDS011;14204;51.262;5.488;2023-05-17T05:56:02;29.50;;;10.70;;
26536;SDS011;14204;51.262;5.488;2023-05-17T05:58:28;33.97;;;10.38;;
26536;SDS011;14204;51.262;5.488;2023-05-17T06:00:55;32.47;;;11.15;;
26536;SDS011;14204;51.262;5.488;2023-05-17T06:03:21;27.48;;;10.25;;
26536;SDS011;14204;51.262;5.488;2023-05-17T06:05:48;30.90;;;11.38;;
26536;SDS011;14204;51.262;5.488;2023-05-17T06:08:14;31.33;;;11.57;;
26536;SDS011;14204;51.262;5.488;2023-05-17T06:10:39;24.20;;;9.80;;
26536;SDS011;14204;51.262;5.488;2023-05-17T06:13:05;21.02;;;9.93;;
26536;SDS011;14204;51.262;5.488;2023-05-17T06:15:31;24.85;;;10.20;;
26536;SDS011;14204;51.262;5.488;2023-05-17T06:17:57;25.42;;;9.63;;
26536;SDS011;14204;51.262;5.488;2023-05-17T06:20:22;21.98;;;9.88;;
26536;SDS011;14204;51.262;5.488;2023-05-17T06:22:48;34.47;;;10.50;;
26536;SDS011;14204;51.262;5.488;2023-05-17T06:25:14;26.00;;;8.60;;
26536;SDS011;14204;51.262;5.488;2023-05-17T06:27:40;24.60;;;9.48;;
26536;SDS011;14204;51.262;5.488;2023-05-17T06:30:06;24.73;;;8.63;;
26536;SDS011;14204;51.262;5.488;2023-05-17T06:32:32;30.35;;;8.80;;
26536;SDS011;14204;51.262;5.488;2023-05-17T06:34:58;24.13;;;8.93;;
26536;SDS011;14204;51.262;5.488;2023-05-17T06:37:24;24.80;;;8.52;;
26536;SDS011;14204;51.262;5.488;2023-05-17T06:39:50;31.45;;;9.10;;
26536;SDS011;14204;51.262;5.488;2023-05-17T06:42:16;22.48;;;8.43;;
26536;SDS011;14204;51.262;5.488;2023-05-17T06:44:42;18.75;;;7.55;;
26536;SDS011;14204;51.262;5.488;2023-05-17T06:47:08;17.77;;;7.22;;
26536;SDS011;14204;51.262;5.488;2023-05-17T06:49:34;20.70;;;6.70;;
26536;SDS011;14204;51.262;5.488;2023-05-17T06:52:01;18.08;;;6.68;;
26536;SDS011;14204;51.262;5.488;2023-05-17T06:54:29;27.13;;;7.97;;
26536;SDS011;14204;51.262;5.488;2023-05-17T06:57:01;24.67;;;6.85;;
26536;SDS011;14204;51.262;5.488;2023-05-17T06:59:27;22.05;;;6.30;;
26536;SDS011;14204;51.262;5.488;2023-05-17T07:01:53;18.40;;;5.60;;
26536;SDS011;14204;51.262;5.488;2023-05-17T07:04:18;24.73;;;5.53;;
26536;SDS011;14204;51.262;5.488;2023-05-17T07:06:44;18.58;;;5.43;;
26536;SDS011;14204;51.262;5.488;2023-05-17T07:09:10;18.52;;;5.28;;
26536;SDS011;14204;51.262;5.488;2023-05-17T07:11:36;17.38;;;5.15;;
26536;SDS011;14204;51.262;5.488;2023-05-17T07:14:02;16.08;;;4.65;;
26536;SDS011;14204;51.262;5.488;2023-05-17T07:16:28;19.27;;;4.50;;
26536;SDS011;14204;51.262;5.488;2023-05-17T07:18:54;19.02;;;4.57;;
26536;SDS011;14204;51.262;5.488;2023-05-17T07:21:20;12.95;;;4.05;;
26536;SDS011;14204;51.262;5.488;2023-05-17T07:23:48;19.70;;;4.07;;
26536;SDS011;14204;51.262;5.488;2023-05-17T07:26:14;13.98;;;4.57;;
26536;SDS011;14204;51.262;5.488;2023-05-17T07:28:42;13.50;;;3.53;;
26536;SDS011;14204;51.262;5.488;2023-05-17T07:31:08;10.73;;;2.85;;
26536;SDS011;14204;51.262;5.488;2023-05-17T07:33:35;14.07;;;2.85;;
26536;SDS011;14204;51.262;5.488;2023-05-17T07:36:01;14.82;;;3.72;;
26536;SDS011;14204;51.262;5.488;2023-05-17T07:38:28;8.75;;;2.67;;
26536;SDS011;14204;51.262;5.488;2023-05-17T07:40:53;14.15;;;3.20;;
26536;SDS011;14204;51.262;5.488;2023-05-17T07:43:19;12.70;;;3.00;;
26536;SDS011;14204;51.262;5.488;2023-05-17T07:45:45;13.25;;;2.75;;
26536;SDS011;14204;51.262;5.488;2023-05-17T07:48:11;12.45;;;2.72;;
26536;SDS011;14204;51.262;5.488;2023-05-17T07:50:37;11.43;;;3.13;;
26536;SDS011;14204;51.262;5.488;2023-05-17T07:53:03;10.00;;;2.58;;
26536;SDS011;14204;51.262;5.488;2023-05-17T07:55:28;9.52;;;2.60;;
26536;SDS011;14204;51.262;5.488;2023-05-17T07:57:54;13.25;;;2.97;;
26536;SDS011;14204;51.262;5.488;2023-05-17T08:00:20;13.70;;;2.72;;
26536;SDS011;14204;51.262;5.488;2023-05-17T08:02:46;11.02;;;2.85;;
26536;SDS011;14204;51.262;5.488;2023-05-17T08:05:12;14.00;;;3.45;;
26536;SDS011;14204;51.262;5.488;2023-05-17T08:07:38;9.95;;;2.75;;
26536;SDS011;14204;51.262;5.488;2023-05-17T08:10:04;15.23;;;2.67;;
26536;SDS011;14204;51.262;5.488;2023-05-17T08:12:30;15.13;;;3.40;;
26536;SDS011;14204;51.262;5.488;2023-05-17T08:14:56;15.10;;;3.22;;
26536;SDS011;14204;51.262;5.488;2023-05-17T08:17:22;13.23;;;3.33;;
26536;SDS011;14204;51.262;5.488;2023-05-17T08:19:47;17.10;;;3.42;;
26536;SDS011;14204;51.262;5.488;2023-05-17T08:22:14;12.35;;;2.85;;
26536;SDS011;14204;51.262;5.488;2023-05-17T08:24:40;10.88;;;2.97;;
26536;SDS011;14204;51.262;5.488;2023-05-17T08:27:07;11.30;;;2.75;;
26536;SDS011;14204;51.262;5.488;2023-05-17T08:29:33;14.48;;;2.55;;
26536;SDS011;14204;51.262;5.488;2023-05-17T08:31:58;14.80;;;2.72;;
26536;SDS011;14204;51.262;5.488;2023-05-17T08:34:25;11.45;;;2.95;;
26536;SDS011;14204;51.262;5.488;2023-05-17T08:36:50;11.75;;;2.83;;
26536;SDS011;14204;51.262;5.488;2023-05-17T08:39:17;12.38;;;2.30;;
26536;SDS011;14204;51.262;5.488;2023-05-17T08:41:45;10.77;;;2.85;;
26536;SDS011;14204;51.262;5.488;2023-05-17T08:44:12;13.18;;;2.78;;
26536;SDS011;14204;51.262;5.488;2023-05-17T08:46:41;13.35;;;2.78;;
26536;SDS011;14204;51.262;5.488;2023-05-17T08:49:08;9.27;;;2.15;;
26536;SDS011;14204;51.262;5.488;2023-05-17T08:51:39;13.90;;;3.03;;
26536;SDS011;14204;51.262;5.488;2023-05-17T08:54:06;13.02;;;2.70;;
26536;SDS011;14204;51.262;5.488;2023-05-17T08:56:32;6.93;;;2.00;;
26536;SDS011;14204;51.262;5.488;2023-05-17T08:59:02;14.00;;;2.17;;
26536;SDS011;14204;51.262;5.488;2023-05-17T09:01:30;14.15;;;3.05;;
26536;SDS011;14204;51.262;5.488;2023-05-17T09:03:56;10.35;;;2.30;;
26536;SDS011;14204;51.262;5.488;2023-05-17T09:06:24;13.02;;;2.22;;
26536;SDS011;14204;51.262;5.488;2023-05-17T09:08:50;13.73;;;2.60;;
26536;SDS011;14204;51.262;5.488;2023-05-17T09:11:50;15.57;;;2.92;;
26536;SDS011;14204;51.262;5.488;2023-05-17T09:14:09;5.87;;;1.67;;
26536;SDS011;14204;51.262;5.488;2023-05-17T09:16:35;8.38;;;2.63;;
26536;SDS011;14204;51.262;5.488;2023-05-17T09:19:02;9.70;;;2.13;;
26536;SDS011;14204;51.262;5.488;2023-05-17T09:22:16;7.35;;;2.22;;
26536;SDS011;14204;51.262;5.488;2023-05-17T09:24:28;14.82;;;2.63;;
26536;SDS011;14204;51.262;5.488;2023-05-17T09:26:59;13.95;;;3.20;;
26536;SDS011;14204;51.262;5.488;2023-05-17T09:29:29;11.93;;;2.78;;
26536;SDS011;14204;51.262;5.488;2023-05-17T09:31:57;11.20;;;2.15;;
26536;SDS011;14204;51.262;5.488;2023-05-17T09:34:37;11.98;;;2.60;;
26536;SDS011;14204;51.262;5.488;2023-05-17T09:37:05;9.30;;;2.00;;
26536;SDS011;14204;51.262;5.488;2023-05-17T09:39:36;10.88;;;2.13;;
26536;SDS011;14204;51.262;5.488;2023-05-17T09:42:02;8.82;;;2.35;;
26536;SDS011;14204;51.262;5.488;2023-05-17T09:44:28;9.88;;;2.38;;
26536;SDS011;14204;51.262;5.488;2023-05-17T09:46:56;10.05;;;2.03;;
26536;SDS011;14204;51.262;5.488;2023-05-17T09:49:25;13.57;;;2.67;;
26536;SDS011;14204;51.262;5.488;2023-05-17T09:51:52;7.78;;;2.25;;
26536;SDS011;14204;51.262;5.488;2023-05-17T09:54:17;9.23;;;2.40;;
26536;SDS011;14204;51.262;5.488;2023-05-17T09:56:43;9.70;;;2.70;;
26536;SDS011;14204;51.262;5.488;2023-05-17T09:59:17;11.13;;;2.05;;
26536;SDS011;14204;51.262;5.488;2023-05-17T10:01:44;12.27;;;2.58;;
26536;SDS011;14204;51.262;5.488;2023-05-17T10:04:14;11.15;;;2.33;;
26536;SDS011;14204;51.262;5.488;2023-05-17T10:06:44;14.38;;;2.47;;
26536;SDS011;14204;51.262;5.488;2023-05-17T10:09:13;17.88;;;2.88;;
26536;SDS011;14204;51.262;5.488;2023-05-17T10:11:43;8.57;;;2.53;;
26536;SDS011;14204;51.262;5.488;2023-05-17T10:14:27;7.70;;;2.30;;
26536;SDS011;14204;51.262;5.488;2023-05-17T10:17:09;7.90;;;1.98;;
26536;SDS011;14204;51.262;5.488;2023-05-17T10:19:36;8.32;;;2.20;;
26536;SDS011;14204;51.262;5.488;2023-05-17T10:22:03;9.57;;;2.10;;
26536;SDS011;14204;51.262;5.488;2023-05-17T10:24:31;10.45;;;2.67;;
26536;SDS011;14204;51.262;5.488;2023-05-17T10:26:58;10.50;;;1.95;;
26536;SDS011;14204;51.262;5.488;2023-05-17T10:29:24;7.32;;;1.73;;
26536;SDS011;14204;51.262;5.488;2023-05-17T10:31:50;10.05;;;2.53;;
26536;SDS011;14204;51.262;5.488;2023-05-17T10:34:17;10.88;;;2.90;;
26536;SDS011;14204;51.262;5.488;2023-05-17T10:36:43;11.32;;;2.63;;
26536;SDS011;14204;51.262;5.488;2023-05-17T10:39:10;15.02;;;3.33;;
26536;SDS011;14204;51.262;5.488;2023-05-17T10:41:38;11.90;;;2.50;;
26536;SDS011;14204;51.262;5.488;2023-05-17T10:44:06;10.13;;;2.35;;
26536;SDS011;14204;51.262;5.488;2023-05-17T10:46:34;8.80;;;1.98;;
26536;SDS011;14204;51.262;5.488;2023-05-17T10:49:01;7.57;;;2.22;;
26536;SDS011;14204;51.262;5.488;2023-05-17T10:54:14;7.07;;;1.70;;
26536;SDS011;14204;51.262;5.488;2023-05-17T10:57:34;7.53;;;1.90;;
26536;SDS011;14204;51.262;5.488;2023-05-17T11:00:02;7.38;;;1.70;;
26536;SDS011;14204;51.262;5.488;2023-05-17T11:02:34;7.72;;;2.10;;
26536;SDS011;14204;51.262;5.488;2023-05-17T11:05:04;5.95;;;1.85;;
26536;SDS011;14204;51.262;5.488;2023-05-17T11:07:31;9.95;;;2.05;;
26536;SDS011;14204;51.262;5.488;2023-05-17T11:14:57;10.23;;;2.30;;
26536;SDS011;14204;51.262;5.488;2023-05-17T11:17:23;10.50;;;2.22;;
26536;SDS011;14204;51.262;5.488;2023-05-17T11:22:27;9.80;;;2.00;;
26536;SDS011;14204;51.262;5.488;2023-05-17T11:25:00;9.13;;;2.08;;
26536;SDS011;14204;51.262;5.488;2023-05-17T11:27:35;9.55;;;2.25;;
26536;SDS011;14204;51.262;5.488;2023-05-17T11:30:15;9.30;;;2.15;;
26536;SDS011;14204;51.262;5.488;2023-05-17T11:32:53;13.15;;;2.65;;
26536;SDS011;14204;51.262;5.488;2023-05-17T11:35:26;9.95;;;2.38;;
26536;SDS011;14204;51.262;5.488;2023-05-17T11:40:41;10.38;;;2.05;;
26536;SDS011;14204;51.262;5.488;2023-05-17T11:43:10;12.15;;;2.15;;
26536;SDS011;14204;51.262;5.488;2023-05-17T11:45:48;5.93;;;1.80;;
26536;SDS011;14204;51.262;5.488;2023-05-17T11:48:15;12.32;;;2.30;;
26536;SDS011;14204;51.262;5.488;2023-05-17T11:50:43;6.30;;;2.13;;
26536;SDS011;14204;51.262;5.488;2023-05-17T11:53:10;9.60;;;2.08;;
26536;SDS011;14204;51.262;5.488;2023-05-17T11:55:38;8.73;;;2.08;;
26536;SDS011;14204;51.262;5.488;2023-05-17T11:58:05;8.55;;;1.75;;
26536;SDS011;14204;51.262;5.488;2023-05-17T12:00:32;10.35;;;2.05;;
26536;SDS011;14204;51.262;5.488;2023-05-17T12:03:13;5.75;;;1.60;;
26536;SDS011;14204;51.262;5.488;2023-05-17T12:05:43;5.45;;;1.50;;
26536;SDS011;14204;51.262;5.488;2023-05-17T12:08:10;6.45;;;1.85;;
26536;SDS011;14204;51.262;5.488;2023-05-17T12:10:36;8.98;;;2.08;;
26536;SDS011;14204;51.262;5.488;2023-05-17T12:13:08;6.95;;;1.85;;
26536;SDS011;14204;51.262;5.488;2023-05-17T12:15:33;7.68;;;2.60;;
26536;SDS011;14204;51.262;5.488;2023-05-17T12:17:59;7.38;;;1.83;;
26536;SDS011;14204;51.262;5.488;2023-05-17T12:20:25;6.50;;;1.80;;
26536;SDS011;14204;51.262;5.488;2023-05-17T12:22:53;7.20;;;1.90;;
26536;SDS011;14204;51.262;5.488;2023-05-17T12:25:20;4.70;;;1.65;;
26536;SDS011;14204;51.262;5.488;2023-05-17T12:27:51;5.63;;;1.48;;
26536;SDS011;14204;51.262;5.488;2023-05-17T12:30:17;7.70;;;1.52;;
26536;SDS011;14204;51.262;5.488;2023-05-17T12:32:43;8.48;;;1.98;;
26536;SDS011;14204;51.262;5.488;2023-05-17T12:35:11;7.80;;;2.00;;
26536;SDS011;14204;51.262;5.488;2023-05-17T12:37:37;6.25;;;2.00;;
26536;SDS011;14204;51.262;5.488;2023-05-17T12:40:03;8.95;;;1.90;;
26536;SDS011;14204;51.262;5.488;2023-05-17T12:42:30;5.95;;;1.70;;
26536;SDS011;14204;51.262;5.488;2023-05-17T12:44:59;7.25;;;2.10;;
26536;SDS011;14204;51.262;5.488;2023-05-17T12:47:31;7.57;;;1.55;;
26536;SDS011;14204;51.262;5.488;2023-05-17T12:49:58;5.20;;;1.58;;
26536;SDS011;14204;51.262;5.488;2023-05-17T12:52:31;10.93;;;1.70;;
26536;SDS011;14204;51.262;5.488;2023-05-17T12:55:01;7.28;;;1.77;;
26536;SDS011;14204;51.262;5.488;2023-05-17T12:57:27;7.47;;;1.90;;
26536;SDS011;14204;51.262;5.488;2023-05-17T12:59:53;6.55;;;1.63;;
26536;SDS011;14204;51.262;5.488;2023-05-17T13:02:19;12.23;;;1.63;;
26536;SDS011;14204;51.262;5.488;2023-05-17T13:04:45;5.25;;;1.80;;
26536;SDS011;14204;51.262;5.488;2023-05-17T13:07:11;3.70;;;1.65;;
26536;SDS011;14204;51.262;5.488;2023-05-17T13:09:45;13.35;;;2.03;;
26536;SDS011;14204;51.262;5.488;2023-05-17T13:12:16;9.13;;;1.90;;
26536;SDS011;14204;51.262;5.488;2023-05-17T13:14:47;7.28;;;1.98;;
26536;SDS011;14204;51.262;5.488;2023-05-17T13:17:25;6.43;;;1.70;;
26536;SDS011;14204;51.262;5.488;2023-05-17T13:20:05;8.65;;;1.73;;
26536;SDS011;14204;51.262;5.488;2023-05-17T13:22:32;8.35;;;1.85;;
26536;SDS011;14204;51.262;5.488;2023-05-17T13:25:04;7.70;;;1.50;;
26536;SDS011;14204;51.262;5.488;2023-05-17T13:27:31;5.40;;;1.35;;
26536;SDS011;14204;51.262;5.488;2023-05-17T13:29:57;7.75;;;1.63;;
26536;SDS011;14204;51.262;5.488;2023-05-17T13:32:23;7.00;;;2.17;;
26536;SDS011;14204;51.262;5.488;2023-05-17T13:34:48;8.10;;;1.58;;
26536;SDS011;14204;51.262;5.488;2023-05-17T13:37:14;5.20;;;1.75;;
26536;SDS011;14204;51.262;5.488;2023-05-17T13:39:40;6.25;;;1.85;;
26536;SDS011;14204;51.262;5.488;2023-05-17T13:42:05;10.13;;;2.20;;
26536;SDS011;14204;51.262;5.488;2023-05-17T13:44:31;5.00;;;1.55;;
26536;SDS011;14204;51.262;5.488;2023-05-17T13:46:57;5.80;;;1.92;;
26536;SDS011;14204;51.262;5.488;2023-05-17T13:49:23;7.97;;;1.88;;
26536;SDS011;14204;51.262;5.488;2023-05-17T13:51:48;6.88;;;1.50;;
26536;SDS011;14204;51.262;5.488;2023-05-17T13:54:14;4.05;;;1.45;;
26536;SDS011;14204;51.262;5.488;2023-05-17T13:56:40;7.20;;;1.73;;
26536;SDS011;14204;51.262;5.488;2023-05-17T13:59:06;5.30;;;1.60;;
26536;SDS011;14204;51.262;5.488;2023-05-17T14:01:32;3.17;;;1.70;;
26536;SDS011;14204;51.262;5.488;2023-05-17T14:03:57;4.57;;;1.60;;
26536;SDS011;14204;51.262;5.488;2023-05-17T14:06:24;7.95;;;1.80;;
26536;SDS011;14204;51.262;5.488;2023-05-17T14:08:50;8.43;;;1.88;;
26536;SDS011;14204;51.262;5.488;2023-05-17T14:11:17;5.60;;;1.27;;
26536;SDS011;14204;51.262;5.488;2023-05-17T14:13:43;7.00;;;1.35;;
26536;SDS011;14204;51.262;5.488;2023-05-17T14:16:09;4.20;;;1.17;;
26536;SDS011;14204;51.262;5.488;2023-05-17T14:18:35;5.65;;;1.25;;
26536;SDS011;14204;51.262;5.488;2023-05-17T14:21:01;4.60;;;1.45;;
26536;SDS011;14204;51.262;5.488;2023-05-17T14:23:27;4.55;;;1.75;;
26536;SDS011;14204;51.262;5.488;2023-05-17T14:25:53;5.70;;;1.10;;
26536;SDS011;14204;51.262;5.488;2023-05-17T14:28:19;6.70;;;1.52;;
26536;SDS011;14204;51.262;5.488;2023-05-17T14:30:45;5.78;;;1.33;;
26536;SDS011;14204;51.262;5.488;2023-05-17T14:33:11;4.43;;;1.63;;
26536;SDS011;14204;51.262;5.488;2023-05-17T14:35:37;3.83;;;1.48;;
26536;SDS011;14204;51.262;5.488;2023-05-17T14:38:03;8.65;;;1.75;;
26536;SDS011;14204;51.262;5.488;2023-05-17T14:40:28;7.30;;;1.58;;
26536;SDS011;14204;51.262;5.488;2023-05-17T14:42:55;7.47;;;1.25;;
26536;SDS011;14204;51.262;5.488;2023-05-17T14:45:21;3.47;;;1.27;;
26536;SDS011;14204;51.262;5.488;2023-05-17T14:47:47;6.38;;;1.23;;
26536;SDS011;14204;51.262;5.488;2023-05-17T14:50:12;3.42;;;1.40;;
26536;SDS011;14204;51.262;5.488;2023-05-17T14:52:38;7.57;;;1.63;;
26536;SDS011;14204;51.262;5.488;2023-05-17T14:55:04;3.60;;;1.08;;
26536;SDS011;14204;51.262;5.488;2023-05-17T14:57:30;9.63;;;1.48;;
26536;SDS011;14204;51.262;5.488;2023-05-17T14:59:57;5.25;;;1.98;;
26536;SDS011;14204;51.262;5.488;2023-05-17T15:02:23;5.90;;;1.55;;
26536;SDS011;14204;51.262;5.488;2023-05-17T15:04:49;5.93;;;1.65;;
26536;SDS011;14204;51.262;5.488;2023-05-17T15:07:15;5.35;;;2.05;;